Time;durP1;ratioP1;P1;durP2;ratioP2;P2;SDS_P1;SDS_P2;PMS_P1;PMS_P2;Temp;Humidity;BMP_temperature;BMP_pressure;BME280_temperature;BME280_humidity;BME280_pressure;Samples;Min_cycle;Max_cycle;Signal;HPM_P1;HPM_P2
2022/10/25 00:00:04;;;;;;;20.93;8.33;;;12.40;99.90;;;;;;5072025;28;20093;-70
2022/10/25 00:02:33;;;;;;;24.17;8.33;;;12.40;99.90;;;;;;5074104;28;20049;-70
2022/10/25 00:04:59;;;;;;;21.40;8.43;;;12.40;99.90;;;;;;5075690;28;20287;-70
2022/10/25 00:07:25;;;;;;;18.37;9.50;;;12.40;99.90;;;;;;5075580;28;20771;-70
2022/10/25 00:09:50;;;;;;;19.57;9.53;;;12.40;99.90;;;;;;5075853;28;20289;-70
2022/10/25 00:12:16;;;;;;;18.03;9.30;;;12.40;99.90;;;;;;5075623;28;20599;-70
2022/10/25 00:14:42;;;;;;;20.13;10.10;;;12.40;99.90;;;;;;5075762;28;20131;-70
2022/10/25 00:17:08;;;;;;;18.07;9.53;;;12.40;99.90;;;;;;5074313;28;20055;-70
2022/10/25 00:19:33;;;;;;;22.47;9.63;;;12.40;99.90;;;;;;5076096;28;20067;-70
2022/10/25 00:21:59;;;;;;;27.63;10.90;;;12.40;99.90;;;;;;5074921;28;20307;-70
2022/10/25 00:24:25;;;;;;;23.30;10.60;;;12.40;99.90;;;;;;5075621;28;20095;-70
2022/10/25 00:26:50;;;;;;;21.13;9.90;;;12.50;99.90;;;;;;5075574;28;20052;-70
2022/10/25 00:29:17;;;;;;;23.80;12.17;;;12.40;99.90;;;;;;5075211;28;20048;-70
2022/10/25 00:31:43;;;;;;;25.43;11.37;;;12.50;99.90;;;;;;5075417;28;20123;-70
2022/10/25 00:34:08;;;;;;;24.73;12.80;;;12.50;99.90;;;;;;5075200;28;20374;-70
2022/10/25 00:36:34;;;;;;;25.07;11.90;;;12.50;99.90;;;;;;5075627;28;20538;-70
2022/10/25 00:39:00;;;;;;;23.13;12.93;;;12.50;99.90;;;;;;5075179;28;20044;-74
2022/10/25 00:41:28;;;;;;;22.50;12.17;;;12.50;99.90;;;;;;5075394;28;20040;-70
2022/10/25 00:44:16;;;;;;;24.33;12.40;;;12.50;99.90;;;;;;5074950;28;20523;-70
2022/10/25 00:46:43;;;;;;;32.13;13.00;;;12.50;99.90;;;;;;5074786;28;20357;-70
2022/10/25 00:49:17;;;;;;;26.33;13.50;;;12.50;99.90;;;;;;5074920;28;20279;-70
2022/10/25 00:51:52;;;;;;;31.90;13.37;;;12.50;99.90;;;;;;5075192;28;20308;-70
2022/10/25 00:54:23;;;;;;;;;;;12.50;99.90;;;;;;5075251;28;20285;-70
2022/10/25 00:56:51;;;;;;;28.53;13.47;;;12.50;99.90;;;;;;5075115;28;19928;-70
2022/10/25 00:59:24;;;;;;;27.23;13.50;;;12.60;99.90;;;;;;5074665;28;20320;-70
2022/10/25 01:01:55;;;;;;;28.23;13.63;;;12.60;99.90;;;;;;5074816;28;20290;-70
2022/10/25 01:04:25;;;;;;;35.80;14.73;;;12.60;99.90;;;;;;5074631;28;20287;-69
2022/10/25 01:06:52;;;;;;;25.33;13.53;;;12.60;99.90;;;;;;5074751;28;20354;-69
2022/10/25 01:09:23;;;;;;;25.63;14.60;;;12.70;99.90;;;;;;5073917;28;20271;-70
2022/10/25 01:11:48;;;;;;;31.23;13.43;;;12.70;99.90;;;;;;5074203;28;20275;-70
2022/10/25 01:14:15;;;;;;;30.33;14.27;;;12.70;99.90;;;;;;5073634;28;20302;-69
2022/10/25 01:17:04;;;;;;;28.67;13.53;;;12.70;99.90;;;;;;5074561;28;20052;-68
2022/10/25 01:19:48;;;;;;;33.60;14.60;;;12.70;99.90;;;;;;5073333;28;20291;-68
2022/10/25 01:22:13;;;;;;;23.87;13.13;;;12.80;99.90;;;;;;5074246;28;20390;-69
2022/10/25 01:25:13;;;;;;;26.33;14.30;;;12.80;99.90;;;;;;5074360;28;20425;-69
2022/10/25 01:28:03;;;;;;;28.43;13.20;;;12.80;99.90;;;;;;5074402;28;20055;-69
2022/10/25 01:31:07;;;;;;;25.20;12.97;;;12.80;99.90;;;;;;5074370;28;20279;-69
2022/10/25 01:34:02;;;;;;;25.23;12.00;;;12.80;99.90;;;;;;5073057;28;20283;-69
2022/10/25 01:36:38;;;;;;;;;;;12.80;99.90;;;;;;5074605;28;20271;-69
2022/10/25 01:39:19;;;;;;;25.30;11.98;;;12.80;99.90;;;;;;5074270;28;19974;-69
2022/10/25 01:42:25;;;;;;;27.60;13.03;;;12.80;99.90;;;;;;5074124;28;20052;-69
2022/10/25 01:45:20;;;;;;;23.15;10.93;;;12.80;99.90;;;;;;5073973;28;20782;-69
2022/10/25 01:47:52;;;;;;;23.20;11.80;;;12.80;99.90;;;;;;5071531;28;20063;-70
2022/10/25 01:50:26;;;;;;;23.57;11.03;;;12.80;99.90;;;;;;5073692;28;20279;-69
2022/10/25 01:52:52;;;;;;;26.35;11.30;;;12.90;99.90;;;;;;5073975;28;20332;-69
2022/10/25 01:55:20;;;;;;;25.80;11.33;;;12.90;99.90;;;;;;5073529;28;20434;-69
2022/10/25 01:58:00;;;;;;;24.07;11.03;;;12.90;99.90;;;;;;5073717;28;20052;-69
2022/10/25 02:00:26;;;;;;;21.33;10.67;;;12.90;99.90;;;;;;5073462;28;20298;-69
2022/10/25 02:03:08;;;;;;;26.40;10.07;;;12.90;99.90;;;;;;5073930;28;20287;-68
2022/10/25 02:05:46;;;;;;;22.33;10.37;;;12.90;99.90;;;;;;5073659;28;20271;-68
2022/10/25 02:08:24;;;;;;;21.77;9.17;;;12.90;99.90;;;;;;5073443;28;20319;-69
2022/10/25 02:10:52;;;;;;;25.03;9.30;;;12.90;99.90;;;;;;5073588;28;20345;-69
2022/10/25 02:13:24;;;;;;;27.00;9.77;;;12.90;99.90;;;;;;5073239;28;20421;-69
2022/10/25 02:16:01;;;;;;;21.63;9.20;;;12.80;99.90;;;;;;5073409;28;20278;-69
2022/10/25 02:18:30;;;;;;;24.17;9.37;;;12.80;99.90;;;;;;5073098;28;20271;-69
2022/10/25 02:20:57;;;;;;;23.47;9.53;;;12.80;99.90;;;;;;5073033;28;20833;-69
2022/10/25 02:23:25;;;;;;;24.70;10.30;;;12.80;99.90;;;;;;5073147;28;20702;-69
2022/10/25 02:25:52;;;;;;;23.80;9.00;;;12.80;99.90;;;;;;5072028;28;20336;-69
2022/10/25 02:28:20;;;;;;;21.07;9.80;;;12.80;99.90;;;;;;5072977;28;20759;-69
2022/10/25 02:30:48;;;;;;;22.77;10.27;;;12.80;99.90;;;;;;5073161;28;20277;-69
2022/10/25 02:33:14;;;;;;;26.53;10.00;;;12.90;99.90;;;;;;5072916;28;20279;-69
2022/10/25 02:35:40;;;;;;;18.47;9.50;;;12.90;99.90;;;;;;5072204;28;20286;-69
2022/10/25 02:38:06;;;;;;;26.23;10.43;;;12.90;99.90;;;;;;5073159;28;20044;-69
2022/10/25 02:40:32;;;;;;;22.13;8.87;;;12.90;99.90;;;;;;5072804;28;20048;-69
2022/10/25 02:42:58;;;;;;;23.73;9.17;;;12.90;99.90;;;;;;5073296;28;20282;-69
2022/10/25 02:45:24;;;;;;;15.57;7.70;;;12.90;99.90;;;;;;5072715;28;20283;-69
2022/10/25 02:47:49;;;;;;;22.30;7.53;;;12.90;99.90;;;;;;5073082;28;20111;-69
2022/10/25 02:50:15;;;;;;;24.87;8.13;;;13.00;99.90;;;;;;5072744;28;20481;-70
2022/10/25 02:52:41;;;;;;;22.67;7.90;;;13.00;99.90;;;;;;5073008;28;20040;-70
2022/10/25 02:55:07;;;;;;;20.13;8.20;;;13.00;99.90;;;;;;5072930;28;20051;-69
2022/10/25 02:57:37;;;;;;;24.80;8.00;;;13.00;99.90;;;;;;5072656;28;20043;-69
2022/10/25 03:00:05;;;;;;;25.73;8.47;;;13.00;99.90;;;;;;5071825;28;20295;-69
2022/10/25 03:02:31;;;;;;;22.13;7.00;;;13.00;99.90;;;;;;5072631;28;20281;-69
2022/10/25 03:04:57;;;;;;;20.77;7.10;;;13.00;99.90;;;;;;5072530;28;20274;-69
2022/10/25 03:07:23;;;;;;;25.03;8.03;;;13.10;99.90;;;;;;5072577;28;20052;-70
2022/10/25 03:09:49;;;;;;;28.60;8.67;;;13.00;99.90;;;;;;5072823;28;20048;-70
2022/10/25 03:12:14;;;;;;;24.17;8.27;;;13.10;99.90;;;;;;5071878;28;20382;-69
2022/10/25 03:14:40;;;;;;;23.03;8.77;;;13.10;99.90;;;;;;5072388;28;20581;-69
2022/10/25 03:17:07;;;;;;;24.07;7.90;;;13.00;99.90;;;;;;5072931;28;20116;-69
2022/10/25 03:19:32;;;;;;;24.10;8.37;;;13.00;99.90;;;;;;5072350;28;20093;-70
2022/10/25 03:21:58;;;;;;;22.03;8.00;;;13.00;99.90;;;;;;5071014;28;20311;-69
2022/10/25 03:24:24;;;;;;;27.10;8.80;;;13.00;99.90;;;;;;5072461;28;20124;-70
2022/10/25 03:26:49;;;;;;;27.93;9.23;;;13.00;99.90;;;;;;5072668;28;20048;-70
2022/10/25 03:29:15;;;;;;;23.83;8.50;;;13.00;99.90;;;;;;5072760;28;20514;-70
2022/10/25 03:31:41;;;;;;;27.80;9.07;;;12.90;99.90;;;;;;5072303;28;20046;-70
2022/10/25 03:34:06;;;;;;;25.23;8.60;;;13.00;99.90;;;;;;5072735;28;20088;-69
2022/10/25 03:36:32;;;;;;;25.57;8.97;;;13.00;99.90;;;;;;5071239;28;20084;-70
2022/10/25 03:38:58;;;;;;;28.13;9.03;;;12.90;99.90;;;;;;5076529;28;20048;-70
2022/10/25 03:41:23;;;;;;;25.57;7.97;;;12.90;99.90;;;;;;5076105;28;20040;-70
2022/10/25 03:43:49;;;;;;;21.70;8.37;;;12.90;99.90;;;;;;5076336;28;20053;-70
2022/10/25 03:46:15;;;;;;;23.03;7.53;;;12.90;99.90;;;;;;5076413;28;20079;-70
2022/10/25 03:48:40;;;;;;;25.53;8.87;;;12.80;99.90;;;;;;5076014;28;20048;-70
2022/10/25 03:51:06;;;;;;;32.23;8.70;;;12.80;99.90;;;;;;5076154;28;20468;-70
2022/10/25 03:53:32;;;;;;;23.90;8.53;;;12.80;99.90;;;;;;5075947;28;20055;-70
2022/10/25 03:55:58;;;;;;;25.87;8.70;;;12.80;99.90;;;;;;5076076;28;20423;-70
2022/10/25 03:58:23;;;;;;;26.70;8.00;;;12.80;99.90;;;;;;5075795;28;20127;-70
2022/10/25 04:00:49;;;;;;;22.67;7.73;;;12.80;99.90;;;;;;5076056;28;20040;-69
2022/10/25 04:03:15;;;;;;;25.03;8.93;;;12.80;99.90;;;;;;5074738;28;20400;-69
2022/10/25 04:05:40;;;;;;;33.60;8.87;;;12.80;99.90;;;;;;5075662;28;20075;-69
2022/10/25 04:08:06;;;;;;;32.70;9.03;;;12.70;99.90;;;;;;5074796;28;20056;-69
2022/10/25 04:10:32;;;;;;;21.47;8.23;;;12.70;99.90;;;;;;5075304;28;20484;-69
2022/10/25 04:12:58;;;;;;;23.67;8.00;;;12.70;99.90;;;;;;5075959;28;20320;-69
2022/10/25 04:15:24;;;;;;;27.13;7.53;;;12.70;99.90;;;;;;5074300;28;20508;-70
2022/10/25 04:17:51;;;;;;;21.50;7.43;;;12.70;99.90;;;;;;5075964;28;20048;-69
2022/10/25 04:20:18;;;;;;;25.23;7.73;;;12.70;99.90;;;;;;5075602;28;20045;-69
2022/10/25 04:22:44;;;;;;;22.83;7.77;;;12.70;99.90;;;;;;5075096;28;20290;-69
2022/10/25 04:25:09;;;;;;;26.60;7.80;;;12.70;99.90;;;;;;5074460;28;20293;-69
2022/10/25 04:27:35;;;;;;;28.40;7.77;;;12.70;99.90;;;;;;5075301;28;20282;-69
2022/10/25 04:30:01;;;;;;;27.83;7.37;;;12.70;99.90;;;;;;5075742;28;20131;-70
2022/10/25 04:32:26;;;;;;;23.77;7.03;;;12.70;99.90;;;;;;5075169;28;20075;-70
2022/10/25 04:34:52;;;;;;;28.37;6.87;;;12.70;99.90;;;;;;5075167;28;20045;-69
2022/10/25 04:37:18;;;;;;;29.40;7.20;;;12.70;99.90;;;;;;5075429;28;20045;-70
2022/10/25 04:39:43;;;;;;;32.50;6.77;;;12.70;99.90;;;;;;5075061;28;20118;-70
2022/10/25 04:42:09;;;;;;;22.67;7.40;;;12.60;99.90;;;;;;5075239;28;20114;-70
2022/10/25 04:44:35;;;;;;;24.13;6.60;;;12.60;99.90;;;;;;5073824;28;20416;-70
2022/10/25 04:47:00;;;;;;;23.67;6.80;;;12.60;99.90;;;;;;5075138;28;20048;-69
2022/10/25 04:49:26;;;;;;;21.47;6.73;;;12.60;99.90;;;;;;5075052;28;20052;-69
2022/10/25 04:51:52;;;;;;;25.90;7.57;;;12.60;99.90;;;;;;5075198;28;20384;-69
2022/10/25 04:54:17;;;;;;;23.93;7.57;;;12.60;99.90;;;;;;5075123;28;20101;-70
2022/10/25 04:56:43;;;;;;;35.37;8.83;;;12.60;99.90;;;;;;5074800;28;20052;-70
2022/10/25 04:59:09;;;;;;;30.97;8.00;;;12.60;99.90;;;;;;5075042;28;20045;-69
2022/10/25 05:01:35;;;;;;;27.63;7.33;;;12.60;99.90;;;;;;5074661;28;20155;-70
2022/10/25 05:04:00;;;;;;;33.83;8.50;;;12.50;99.90;;;;;;5073901;28;20393;-70
2022/10/25 05:06:26;;;;;;;25.00;7.57;;;12.50;99.90;;;;;;5074002;28;20287;-70
2022/10/25 05:08:53;;;;;;;27.63;7.00;;;12.50;99.90;;;;;;5074581;28;20119;-70
2022/10/25 05:11:21;;;;;;;30.33;7.83;;;12.50;99.90;;;;;;5074805;28;20040;-69
2022/10/25 05:13:47;;;;;;;37.07;8.37;;;12.50;99.90;;;;;;5074448;28;20283;-69
2022/10/25 05:16:19;;;;;;;29.43;8.73;;;12.50;99.90;;;;;;5074683;28;20278;-69
2022/10/25 05:18:45;;;;;;;34.00;8.93;;;12.50;99.90;;;;;;5074454;28;20279;-69
2022/10/25 05:21:11;;;;;;;29.97;8.47;;;12.50;99.90;;;;;;5074180;28;20345;-69
2022/10/25 05:23:37;;;;;;;26.63;8.90;;;12.50;99.90;;;;;;5074367;28;20344;-70
2022/10/25 05:26:08;;;;;;;30.00;8.37;;;12.50;99.90;;;;;;5074670;28;20735;-69
2022/10/25 05:28:35;;;;;;;25.43;8.00;;;12.50;99.90;;;;;;5074169;28;20079;-70
2022/10/25 05:31:12;;;;;;;32.47;8.60;;;12.50;99.90;;;;;;5074383;28;20340;-69
2022/10/25 05:33:37;;;;;;;31.63;7.80;;;12.50;99.90;;;;;;5074054;28;20275;-70
2022/10/25 05:36:03;;;;;;;25.53;7.90;;;12.50;99.90;;;;;;5056783;28;20400;-69
2022/10/25 05:38:29;;;;;;;25.27;7.20;;;12.50;99.90;;;;;;5073281;28;20040;-69
2022/10/25 05:40:57;;;;;;;28.83;7.30;;;12.50;99.90;;;;;;5072619;28;20473;-69
2022/10/25 05:43:24;;;;;;;25.80;8.17;;;12.40;99.90;;;;;;5074220;28;20687;-69
2022/10/25 05:45:50;;;;;;;29.00;8.27;;;12.50;99.90;;;;;;5073801;28;20267;-69
2022/10/25 05:48:15;;;;;;;27.67;7.50;;;12.40;99.90;;;;;;5074012;28;20275;-69
2022/10/25 05:50:42;;;;;;;24.27;7.27;;;12.40;99.90;;;;;;5073802;28;20274;-69
2022/10/25 05:53:07;;;;;;;27.97;8.00;;;12.40;99.90;;;;;;5073037;28;20379;-69
2022/10/25 05:55:33;;;;;;;26.33;8.63;;;12.40;99.90;;;;;;5056442;28;20293;-69
2022/10/25 05:57:59;;;;;;;25.70;7.63;;;12.50;99.90;;;;;;5073922;28;20422;-69
2022/10/25 06:00:25;;;;;;;25.20;7.53;;;12.40;99.90;;;;;;5073149;28;20048;-69
2022/10/25 06:02:50;;;;;;;28.23;7.70;;;12.50;99.90;;;;;;5073433;28;20283;-70
2022/10/25 06:05:16;;;;;;;25.37;7.33;;;12.50;99.90;;;;;;5073956;28;20128;-69
2022/10/25 06:07:42;;;;;;;27.73;6.87;;;12.50;99.90;;;;;;5073349;28;20478;-70
2022/10/25 06:10:08;;;;;;;27.90;6.63;;;12.50;99.90;;;;;;5073581;28;20044;-69
2022/10/25 06:12:34;;;;;;;24.30;6.60;;;12.50;99.90;;;;;;5073485;28;20048;-69
2022/10/25 06:15:00;;;;;;;21.23;6.60;;;12.50;99.90;;;;;;5073185;28;20370;-69
2022/10/25 06:17:25;;;;;;;19.60;5.60;;;12.50;99.90;;;;;;5073552;28;20044;-69
2022/10/25 06:19:51;;;;;;;19.70;5.63;;;12.50;99.90;;;;;;5073148;28;20051;-69
2022/10/25 06:22:17;;;;;;;25.10;6.60;;;12.50;99.90;;;;;;5072830;28;20059;-69
2022/10/25 06:24:42;;;;;;;24.53;5.70;;;12.50;99.90;;;;;;5072937;28;20048;-69
2022/10/25 06:27:08;;;;;;;28.40;6.10;;;12.50;99.90;;;;;;5073108;28;20052;-69
2022/10/25 06:29:34;;;;;;;21.03;5.23;;;12.50;99.90;;;;;;5073041;28;20098;-69
2022/10/25 06:31:59;;;;;;;24.93;5.33;;;12.50;99.90;;;;;;5073053;28;20044;-69
2022/10/25 06:34:25;;;;;;;19.00;4.90;;;12.50;99.90;;;;;;5073474;28;20047;-69
2022/10/25 06:36:51;;;;;;;21.13;5.03;;;12.50;99.90;;;;;;5072948;28;20049;-69
2022/10/25 06:39:16;;;;;;;23.30;5.00;;;12.50;99.90;;;;;;5073061;28;20063;-69
2022/10/25 06:41:42;;;;;;;27.07;5.13;;;12.50;99.90;;;;;;5072827;28;20040;-69
2022/10/25 06:44:08;;;;;;;22.53;4.70;;;12.50;99.90;;;;;;5071885;28;20040;-69
2022/10/25 06:46:36;;;;;;;32.70;5.70;;;12.50;99.90;;;;;;5071845;28;20056;-69
2022/10/25 06:49:04;;;;;;;23.60;5.40;;;12.50;99.90;;;;;;5071778;28;20056;-69
2022/10/25 06:51:31;;;;;;;24.90;6.67;;;12.50;99.90;;;;;;5073099;28;20283;-69
2022/10/25 06:54:04;;;;;;;25.23;5.63;;;12.50;99.90;;;;;;5072672;28;20286;-70
2022/10/25 06:56:30;;;;;;;28.50;5.73;;;12.50;99.90;;;;;;5072907;28;20279;-69
2022/10/25 06:58:56;;;;;;;18.63;5.83;;;12.50;99.90;;;;;;5072688;28;20681;-70
2022/10/25 07:01:24;;;;;;;26.53;6.63;;;12.50;99.90;;;;;;5072865;28;20294;-69
2022/10/25 07:03:52;;;;;;;24.43;6.13;;;12.50;99.90;;;;;;5072686;28;20131;-70
2022/10/25 07:06:24;;;;;;;25.50;5.50;;;12.50;99.90;;;;;;5072893;28;20298;-69
2022/10/25 07:08:59;;;;;;;24.60;5.23;;;12.60;99.90;;;;;;5072700;28;20673;-70
2022/10/25 07:11:26;;;;;;;31.87;5.83;;;12.60;99.90;;;;;;5073080;28;20362;-70
2022/10/25 07:13:52;;;;;;;22.33;5.20;;;12.60;99.90;;;;;;5076595;28;20282;-69
2022/10/25 07:16:19;;;;;;;23.90;5.73;;;12.60;99.90;;;;;;5076979;28;20370;-69
2022/10/25 07:18:46;;;;;;;27.17;5.20;;;12.60;99.90;;;;;;5076596;28;20044;-69
2022/10/25 07:21:20;;;;;;;26.73;5.67;;;12.60;99.90;;;;;;5076505;28;20372;-70
2022/10/25 07:23:46;;;;;;;21.40;5.30;;;12.60;99.90;;;;;;5076371;28;20824;-70
2022/10/25 07:26:21;;;;;;;27.30;5.47;;;12.60;99.90;;;;;;5076839;28;20357;-69
2022/10/25 07:28:48;;;;;;;23.15;5.22;;;12.60;99.90;;;;;;5076615;28;20309;-70
2022/10/25 07:31:18;;;;;;;16.50;4.67;;;12.60;99.90;;;;;;5076666;28;20076;-70
2022/10/25 07:33:44;;;;;;;16.87;4.33;;;12.70;99.90;;;;;;5076631;28;20637;-69
2022/10/25 07:36:09;;;;;;;22.10;5.30;;;12.70;99.90;;;;;;5076378;28;20279;-69
2022/10/25 07:38:35;;;;;;;17.03;4.50;;;12.70;99.90;;;;;;5076738;28;20052;-69
2022/10/25 07:41:01;;;;;;;28.60;5.80;;;12.70;99.90;;;;;;5076148;28;20032;-70
2022/10/25 07:43:28;;;;;;;21.27;5.37;;;12.70;99.90;;;;;;5076425;28;20048;-70
2022/10/25 07:45:54;;;;;;;20.03;5.03;;;12.80;99.90;;;;;;5076085;28;20056;-70
2022/10/25 07:48:21;;;;;;;19.00;5.13;;;12.80;99.90;;;;;;5075658;28;20297;-69
2022/10/25 07:50:46;;;;;;;19.53;4.57;;;12.80;99.90;;;;;;5076052;28;20745;-73
2022/10/25 07:53:12;;;;;;;22.37;5.90;;;12.90;99.90;;;;;;5076289;28;20321;-69
2022/10/25 07:55:38;;;;;;;22.60;4.97;;;12.90;99.90;;;;;;5076422;28;20066;-69
2022/10/25 07:58:05;;;;;;;18.57;4.70;;;13.00;99.90;;;;;;5075881;28;20051;-69
2022/10/25 08:00:31;;;;;;;20.93;5.33;;;13.00;99.90;;;;;;5076015;28;20127;-68
2022/10/25 08:02:57;;;;;;;21.03;5.37;;;13.10;99.90;;;;;;5075789;28;20286;-69
2022/10/25 08:05:23;;;;;;;23.97;6.20;;;13.10;99.90;;;;;;5075787;28;20283;-69
2022/10/25 08:07:49;;;;;;;23.50;5.33;;;13.20;99.90;;;;;;5075720;28;20049;-73
2022/10/25 08:10:16;;;;;;;25.93;5.40;;;13.20;99.90;;;;;;5075992;28;20678;-69
2022/10/25 08:12:42;;;;;;;19.77;6.87;;;13.30;99.90;;;;;;5075903;28;20283;-69
2022/10/25 08:15:08;;;;;;;29.17;6.33;;;13.40;99.90;;;;;;5074342;28;20364;-69
2022/10/25 08:17:33;;;;;;;22.63;5.93;;;13.40;99.90;;;;;;5076331;28;20040;-69
2022/10/25 08:19:59;;;;;;;22.87;6.40;;;13.40;99.90;;;;;;5075526;28;20649;-69
2022/10/25 08:22:25;;;;;;;27.10;6.67;;;13.50;99.90;;;;;;5075128;28;20068;-69
2022/10/25 08:24:50;;;;;;;27.53;6.87;;;13.50;99.90;;;;;;5074066;28;20118;-71
2022/10/25 08:27:16;;;;;;;24.07;7.07;;;13.60;99.90;;;;;;5075472;28;20040;-70
2022/10/25 08:29:42;;;;;;;26.70;8.00;;;13.60;99.90;;;;;;5075232;28;20097;-69
2022/10/25 08:32:08;;;;;;;21.80;6.80;;;13.70;99.90;;;;;;5074893;28;20068;-69
2022/10/25 08:34:33;;;;;;;29.27;7.73;;;13.70;99.90;;;;;;5074948;28;20037;-71
2022/10/25 08:36:59;;;;;;;28.47;7.73;;;13.70;99.90;;;;;;5065198;28;20098;-70
2022/10/25 08:39:25;;;;;;;19.30;6.57;;;13.60;99.90;;;;;;5074970;28;20123;-69
2022/10/25 08:41:54;;;;;;;22.50;7.60;;;13.60;99.90;;;;;;5074830;28;20041;-69
2022/10/25 08:44:39;;;;;;;26.33;7.47;;;13.70;99.90;;;;;;5072753;28;20173;-70
2022/10/25 08:47:25;;;;;;;27.87;7.70;;;13.70;99.90;;;;;;5066233;28;20283;-70
2022/10/25 08:50:32;;;;;;;25.83;7.73;;;13.70;99.90;;;;;;5074195;28;20967;-70
2022/10/25 08:53:03;;;;;;;28.20;7.63;;;13.70;99.90;;;;;;5047102;28;20280;-70
2022/10/25 08:55:36;;;;;;;22.13;7.43;;;13.70;99.90;;;;;;5061921;28;20066;-70
2022/10/25 08:58:07;;;;;;;21.70;7.33;;;13.80;99.90;;;;;;5066820;28;20291;-70
2022/10/25 09:00:39;;;;;;;29.13;8.47;;;13.80;99.90;;;;;;5074766;28;20628;-70
2022/10/25 09:03:14;;;;;;;31.40;7.13;;;13.90;99.90;;;;;;5074817;28;20056;-70
2022/10/25 09:05:46;;;;;;;24.38;7.53;;;13.90;99.90;;;;;;5075229;28;20106;-74
2022/10/25 09:08:26;;;;;;;25.47;5.50;;;13.90;99.90;;;;;;5074713;28;20074;-75
2022/10/25 09:11:19;;;;;;;19.90;5.80;;;13.90;99.90;;;;;;5075027;28;20442;-74
2022/10/25 09:13:58;;;;;;;25.53;6.70;;;13.90;99.90;;;;;;5074947;28;20329;-75
2022/10/25 09:16:45;;;;;;;20.27;5.40;;;13.90;99.90;;;;;;5075036;28;20053;-75
2022/10/25 09:19:19;;;;;;;21.63;5.00;;;14.00;99.90;;;;;;5074476;28;20141;-74
2022/10/25 09:21:45;;;;;;;18.43;4.40;;;14.00;99.90;;;;;;5074490;28;20064;-73
2022/10/25 09:24:25;;;;;;;20.10;4.20;;;14.00;99.90;;;;;;5074290;28;20095;-73
2022/10/25 09:27:14;;;;;;;15.53;4.37;;;14.10;99.90;;;;;;5074570;28;20041;-73
2022/10/25 09:29:46;;;;;;;18.43;4.90;;;14.10;99.90;;;;;;5073753;28;20678;-73
2022/10/25 09:32:19;;;;;;;21.27;4.60;;;14.10;99.90;;;;;;5074132;28;20077;-72
2022/10/25 09:34:45;;;;;;;15.50;4.97;;;14.20;99.90;;;;;;5073630;28;20055;-72
2022/10/25 09:37:28;;;;;;;19.57;4.70;;;14.20;99.90;;;;;;5074032;28;20044;-73
2022/10/25 09:40:18;;;;;;;20.90;4.97;;;14.30;99.90;;;;;;5074520;28;20045;-75
2022/10/25 09:43:01;;;;;;;18.37;4.83;;;14.30;99.90;;;;;;5072820;28;20063;-72
2022/10/25 09:45:34;;;;;;;19.93;4.50;;;14.30;99.90;;;;;;5074080;28;20508;-72
2022/10/25 09:48:26;;;;;;;15.90;4.30;;;14.40;99.90;;;;;;5073982;28;20328;-71
2022/10/25 09:51:04;;;;;;;20.43;5.20;;;14.40;99.90;;;;;;5074112;28;20044;-70
2022/10/25 09:53:32;;;;;;;20.73;4.83;;;14.40;99.90;;;;;;5074015;28;20281;-70
2022/10/25 09:56:00;;;;;;;18.00;5.07;;;14.40;99.90;;;;;;5073926;28;20400;-69
2022/10/25 09:58:32;;;;;;;19.10;5.10;;;14.40;99.90;;;;;;5073876;28;20106;-69
2022/10/25 10:01:04;;;;;;;23.13;5.00;;;14.40;99.90;;;;;;5073735;28;20106;-70
2022/10/25 10:03:34;;;;;;;21.37;5.33;;;14.30;99.90;;;;;;5074029;28;20110;-73
2022/10/25 10:06:03;;;;;;;19.27;5.30;;;14.30;99.90;;;;;;5073835;28;20098;-71
2022/10/25 10:08:33;;;;;;;22.30;5.50;;;14.20;99.90;;;;;;5073692;28;20045;-68
2022/10/25 10:10:59;;;;;;;15.50;4.67;;;14.30;99.90;;;;;;5073824;28;20550;-68
2022/10/25 10:13:30;;;;;;;16.17;6.10;;;14.30;99.90;;;;;;5073346;28;20045;-68
2022/10/25 10:16:30;;;;;;;20.03;4.70;;;14.30;99.90;;;;;;5073648;28;20057;-68
2022/10/25 10:19:25;;;;;;;19.97;5.20;;;14.30;99.90;;;;;;5073836;28;20044;-68
2022/10/25 10:22:05;;;;;;;18.10;4.87;;;14.30;99.90;;;;;;5073417;28;20049;-68
2022/10/25 10:24:35;;;;;;;15.53;4.10;;;14.30;99.90;;;;;;5073332;28;20554;-68
2022/10/25 10:27:25;;;;;;;15.87;4.87;;;14.30;99.90;;;;;;5073246;28;20091;-68
2022/10/25 10:30:00;;;;;;;16.47;4.83;;;14.30;99.90;;;;;;5073344;28;20052;-69
2022/10/25 10:32:28;;;;;;;15.37;5.00;;;14.40;99.90;;;;;;5073271;28;20237;-68
2022/10/25 10:34:56;;;;;;;18.97;4.70;;;14.40;99.90;;;;;;5072417;28;20128;-68
2022/10/25 10:37:24;;;;;;;12.00;3.73;;;14.40;99.90;;;;;;5073167;28;20279;-69
2022/10/25 10:40:18;;;;;;;15.63;4.63;;;14.40;99.90;;;;;;5073340;28;20049;-68
2022/10/25 10:42:44;;;;;;;18.27;4.40;;;14.40;99.90;;;;;;5072535;28;20053;-68
2022/10/25 10:45:11;;;;;;;14.73;3.87;;;14.50;99.90;;;;;;5073127;28;20111;-68
2022/10/25 10:47:48;;;;;;;17.30;4.57;;;14.50;99.90;;;;;;5073064;28;20091;-68
2022/10/25 10:50:25;;;;;;;16.67;4.70;;;14.50;99.90;;;;;;5073046;28;20048;-69
2022/10/25 10:52:58;;;;;;;17.30;3.57;;;14.50;99.90;;;;;;5073351;28;20044;-68
2022/10/25 10:55:51;;;;;;;15.20;3.70;;;14.50;99.90;;;;;;5073002;28;20472;-68
2022/10/25 10:58:25;;;;;;;16.67;4.10;;;14.60;99.90;;;;;;5071641;28;20504;-69
2022/10/25 11:00:54;;;;;;;16.37;4.20;;;14.70;99.90;;;;;;5073145;28;20087;-68
2022/10/25 11:03:35;;;;;;;15.57;4.17;;;14.70;99.90;;;;;;5072878;28;20055;-69
2022/10/25 11:06:01;;;;;;;18.90;5.20;;;14.70;99.90;;;;;;5072746;28;20456;-68
2022/10/25 11:08:26;;;;;;;16.70;4.90;;;14.70;99.90;;;;;;5072799;28;20080;-69
2022/10/25 11:11:12;;;;;;;14.37;5.13;;;14.80;99.90;;;;;;5072009;28;20044;-68
2022/10/25 11:13:37;;;;;;;16.45;5.80;;;14.80;99.90;;;;;;5072995;28;20044;-68
2022/10/25 11:16:06;;;;;;;18.10;4.70;;;14.80;99.90;;;;;;5072932;28;20077;-68
2022/10/25 11:18:49;;;;;;;15.30;4.80;;;14.80;99.90;;;;;;5072674;28;20049;-69
2022/10/25 11:21:42;;;;;;;17.87;5.53;;;14.90;99.90;;;;;;5072431;28;20086;-70
2022/10/25 11:24:17;;;;;;;19.03;5.30;;;14.90;99.90;;;;;;5072803;28;20106;-68
2022/10/25 11:27:12;;;;;;;14.48;4.60;;;15.00;99.90;;;;;;5073225;28;20381;-68
2022/10/25 11:29:59;;;;;;;17.70;5.40;;;15.00;99.90;;;;;;5072153;28;20053;-69
2022/10/25 11:33:03;;;;;;;15.00;4.57;;;15.00;99.90;;;;;;5072586;28;20036;-69
2022/10/25 11:36:07;;;;;;;16.40;5.03;;;15.10;99.90;;;;;;5071396;28;20373;-68
2022/10/25 11:39:14;;;;;;;14.90;3.83;;;15.20;99.90;;;;;;5072238;28;20056;-69
2022/10/25 11:41:45;;;;;;;11.87;3.93;;;15.20;99.90;;;;;;5067586;28;20049;-70
2022/10/25 11:44:43;;;;;;;12.80;3.37;;;15.20;99.90;;;;;;5072473;28;20527;-71
2022/10/25 11:47:36;;;;;;;15.53;3.60;;;15.30;99.90;;;;;;5072512;28;20044;-69
2022/10/25 11:50:26;;;;;;;13.37;3.73;;;15.40;99.90;;;;;;5072591;28;20040;-68
2022/10/25 11:52:58;;;;;;;12.57;3.40;;;15.50;99.90;;;;;;5072445;28;20053;-68
2022/10/25 11:55:56;;;;;;;11.73;3.23;;;15.60;99.90;;;;;;5072220;28;20044;-69
2022/10/25 11:58:44;;;;;;;13.77;3.37;;;15.60;99.90;;;;;;5073623;28;20048;-70
2022/10/25 12:01:25;;;;;;;15.93;3.30;;;15.50;99.90;;;;;;5074808;28;20512;-69
2022/10/25 12:03:57;;;;;;;14.37;3.97;;;15.50;99.90;;;;;;5076344;28;20055;-69
2022/10/25 12:06:41;;;;;;;17.90;3.40;;;15.50;99.90;;;;;;5075766;28;20074;-70
2022/10/25 12:09:25;;;;;;;14.40;3.53;;;15.40;99.90;;;;;;5076055;28;20044;-70
2022/10/25 12:11:57;;;;;;;15.43;3.83;;;15.40;99.90;;;;;;5076168;28;20045;-68
2022/10/25 12:14:32;;;;;;;13.43;4.77;;;15.40;99.90;;;;;;5075756;28;20329;-69
2022/10/25 12:17:00;;;;;;;13.50;5.20;;;15.40;99.90;;;;;;5076010;28;20059;-70
2022/10/25 12:19:28;;;;;;;18.17;5.83;;;15.40;99.90;;;;;;5075477;28;20044;-71
2022/10/25 12:21:58;;;;;;;16.37;6.23;;;15.40;99.90;;;;;;5075542;28;20113;-71
2022/10/25 12:24:42;;;;;;;14.67;5.37;;;15.40;99.90;;;;;;5075319;28;20057;-71
2022/10/25 12:27:10;;;;;;;14.77;5.77;;;15.40;99.90;;;;;;5074816;28;20044;-71
2022/10/25 12:29:42;;;;;;;15.10;5.70;;;15.30;99.90;;;;;;5075600;28;20084;-71
2022/10/25 12:32:20;;;;;;;14.63;5.67;;;15.30;99.90;;;;;;5075503;28;20093;-71
2022/10/25 12:34:53;;;;;;;14.07;6.03;;;15.30;99.90;;;;;;5075555;28;20086;-70
2022/10/25 12:37:21;;;;;;;15.10;5.70;;;15.30;99.90;;;;;;5075157;28;20166;-71
2022/10/25 12:39:47;;;;;;;14.37;5.33;;;15.30;99.90;;;;;;5075402;28;20057;-70
2022/10/25 12:42:42;;;;;;;14.70;5.27;;;15.30;99.90;;;;;;5075301;28;20047;-68
2022/10/25 12:45:35;;;;;;;15.10;5.93;;;15.30;99.90;;;;;;5074622;28;20052;-68
2022/10/25 12:48:19;;;;;;;15.33;6.43;;;15.40;99.90;;;;;;5075505;28;20044;-70
2022/10/25 12:50:51;;;;;;;15.73;7.37;;;15.40;99.90;;;;;;5075169;28;20099;-70
2022/10/25 12:53:44;;;;;;;10.77;5.27;;;15.40;99.90;;;;;;5075328;28;20102;-69
2022/10/25 12:56:25;;;;;;;14.60;5.87;;;15.40;99.90;;;;;;5074985;28;20528;-69